createdAt,value
2023-03-08T00:00:29.594Z,72087.47
2023-03-08T00:01:02.050Z,72083.50
2023-03-08T00:01:36.884Z,72087.47
2023-03-08T00:02:09.110Z,72087.47
2023-03-08T00:02:41.360Z,72087.47
2023-03-08T00:03:17.393Z,72089.47
2023-03-08T00:03:52.111Z,72089.47
2023-03-08T00:04:24.498Z,72091.47
2023-03-08T00:04:59.970Z,72099.47
2023-03-08T00:05:32.398Z,72099.47
2023-03-08T00:06:05.150Z,72099.47
2023-03-08T00:06:40.074Z,72097.47
2023-03-08T00:07:12.317Z,72101.44
2023-03-08T00:07:44.557Z,72099.47
2023-03-08T00:08:20.492Z,72095.47
2023-03-08T00:08:55.614Z,72097.47
2023-03-08T00:09:27.872Z,72103.44
2023-03-08T00:10:02.765Z,72103.44
2023-03-08T00:10:35.103Z,72107.44
2023-03-08T00:11:07.995Z,72105.44
2023-03-08T00:11:42.874Z,72103.44
2023-03-08T00:12:19.426Z,72103.44
2023-03-08T00:12:51.706Z,72105.44
2023-03-08T00:13:26.621Z,72099.47
2023-03-08T00:13:58.916Z,72103.44
2023-03-08T00:14:31.212Z,72103.44
2023-03-08T00:15:06.447Z,72103.44
2023-03-08T00:15:38.895Z,72103.44
2023-03-08T00:16:13.234Z,72105.44
2023-03-08T00:16:48.097Z,72103.44
2023-03-08T00:17:20.437Z,72103.44
2023-03-08T00:17:52.718Z,72097.47
2023-03-08T00:18:27.681Z,72099.47
2023-03-08T00:18:59.905Z,72103.44
2023-03-08T00:19:32.197Z,72099.47
2023-03-08T00:20:08.668Z,72107.44
2023-03-08T00:20:40.897Z,72101.44
2023-03-08T00:21:14.776Z,72103.44
2023-03-08T00:21:49.613Z,72101.44
2023-03-08T00:22:21.845Z,72103.44
2023-03-08T00:22:54.077Z,72091.47
2023-03-08T00:23:28.941Z,72099.47
2023-03-08T00:24:01.176Z,72099.47
2023-03-08T00:24:36.036Z,72099.47
2023-03-08T00:25:09.844Z,72099.47
2023-03-08T00:25:44.657Z,72099.47
2023-03-08T00:26:16.915Z,72099.47
2023-03-08T00:26:49.145Z,72099.47
2023-03-08T00:27:26.588Z,72103.44
2023-03-08T00:27:58.967Z,72103.44
2023-03-08T00:28:31.647Z,72107.44
2023-03-08T00:29:06.846Z,72099.47
2023-03-08T00:29:39.318Z,72103.44
2023-03-08T00:30:13.227Z,72111.44
2023-03-08T00:30:45.547Z,72107.44
2023-03-08T00:31:20.456Z,72103.44
2023-03-08T00:31:52.747Z,72107.44
2023-03-08T00:32:25.926Z,72101.44
2023-03-08T00:33:00.800Z,72105.44
2023-03-08T00:33:33.672Z,72111.44
2023-03-08T00:34:06.063Z,72107.44
2023-03-08T00:34:46.347Z,72113.44
2023-03-08T00:35:20.067Z,72115.44
2023-03-08T00:35:56.748Z,72113.44
2023-03-08T00:36:31.653Z,72115.44
2023-03-08T00:37:03.893Z,72119.41
2023-03-08T00:37:36.145Z,72123.41
2023-03-08T00:38:08.383Z,72119.41
2023-03-08T00:38:43.250Z,72119.41
2023-03-08T00:39:16.610Z,72119.41
2023-03-08T00:39:51.677Z,72119.41
2023-03-08T00:40:26.553Z,72119.41
2023-03-08T00:40:58.829Z,72123.41
2023-03-08T00:41:31.165Z,72127.41
2023-03-08T00:42:03.501Z,72121.41
2023-03-08T00:42:41.923Z,72119.41
2023-03-08T00:43:14.158Z,72119.41
2023-03-08T00:43:46.572Z,72123.41
2023-03-08T00:44:21.456Z,72127.41
2023-03-08T00:44:53.723Z,72121.41
2023-03-08T00:45:25.995Z,72125.41
2023-03-08T00:46:01.049Z,72119.41
2023-03-08T00:46:34.229Z,72123.41
2023-03-08T00:47:06.480Z,72127.41
2023-03-08T00:47:41.313Z,72123.41
2023-03-08T00:48:13.587Z,72131.38
2023-03-08T00:48:46.004Z,72135.38
2023-03-08T00:49:23.204Z,72133.38
2023-03-08T00:49:56.605Z,72123.41
2023-03-08T00:50:28.832Z,72133.38
2023-03-08T00:51:03.992Z,72125.41
2023-03-08T00:51:36.259Z,72125.41
2023-03-08T00:52:08.720Z,72121.41
2023-03-08T00:52:44.900Z,72127.41
2023-03-08T00:53:19.011Z,72123.41
2023-03-08T00:53:52.041Z,72125.41
2023-03-08T00:54:26.916Z,72131.38
2023-03-08T00:54:59.258Z,72127.41
2023-03-08T00:55:31.513Z,72129.41
2023-03-08T00:56:06.658Z,72135.38
2023-03-08T00:56:38.904Z,72133.38
2023-03-08T00:57:11.397Z,72135.38
2023-03-08T00:57:48.859Z,72131.38
2023-03-08T00:58:21.601Z,72127.41
2023-03-08T00:58:56.483Z,72135.38
2023-03-08T00:59:28.932Z,72129.41
2023-03-08T01:00:02.704Z,72135.38
2023-03-08T01:00:38.107Z,72127.41
2023-03-08T01:01:14.432Z,72131.38
2023-03-08T01:01:46.818Z,72123.41
2023-03-08T01:02:22.252Z,72123.41
2023-03-08T01:02:54.949Z,72131.38
2023-03-08T01:03:27.455Z,72129.41
2023-03-08T01:04:04.700Z,72129.41
2023-03-08T01:04:36.997Z,72127.41
2023-03-08T01:05:10.240Z,72133.38
2023-03-08T01:05:43.372Z,72135.38
2023-03-08T01:06:18.613Z,72127.41
2023-03-08T01:06:50.872Z,72119.41
2023-03-08T01:07:24.140Z,72119.41
2023-03-08T01:07:59.073Z,72131.38
2023-03-08T01:08:31.370Z,72127.41
2023-03-08T01:09:04.490Z,72129.41
2023-03-08T01:09:39.312Z,72129.41
2023-03-08T01:10:12.628Z,72125.41
2023-03-08T01:10:47.865Z,72123.41
2023-03-08T01:11:24.658Z,72123.41
2023-03-08T01:11:56.917Z,72125.41
2023-03-08T01:12:29.158Z,72127.41
2023-03-08T01:13:07.761Z,72127.41
2023-03-08T01:13:40.031Z,72127.41
2023-03-08T01:14:15.677Z,72123.41
2023-03-08T01:14:47.921Z,72135.38
2023-03-08T01:15:20.158Z,72129.41
2023-03-08T01:15:55.018Z,72135.38
2023-03-08T01:16:29.754Z,72125.41
2023-03-08T01:17:03.694Z,72127.41
2023-03-08T01:17:38.970Z,72125.41
2023-03-08T01:18:11.627Z,72127.41
2023-03-08T01:18:43.924Z,72127.41
2023-03-08T01:19:18.814Z,72127.41
2023-03-08T01:19:51.061Z,72127.41
2023-03-08T01:20:23.709Z,72125.41
2023-03-08T01:20:57.802Z,72129.41
2023-03-08T01:21:34.077Z,72131.38
2023-03-08T01:22:06.379Z,72131.38
2023-03-08T01:22:38.669Z,72135.38
2023-03-08T01:23:13.836Z,72139.38
2023-03-08T01:23:46.128Z,72131.38
2023-03-08T01:24:18.401Z,72135.38
2023-03-08T01:24:53.722Z,72131.38
2023-03-08T01:25:26.026Z,72137.38
2023-03-08T01:25:59.682Z,72135.38
2023-03-08T01:26:34.520Z,72127.41
2023-03-08T01:27:06.855Z,72135.38
2023-03-08T01:27:39.113Z,72135.38
2023-03-08T01:28:16.594Z,72127.41
2023-03-08T01:28:49.320Z,72125.41
2023-03-08T01:29:21.619Z,72135.38
2023-03-08T01:29:56.510Z,72127.41
2023-03-08T01:30:29.619Z,72125.41
2023-03-08T01:31:03.400Z,72129.41
2023-03-08T01:31:38.237Z,72129.41
2023-03-08T01:32:11.033Z,72131.38
2023-03-08T01:32:43.357Z,72127.41
2023-03-08T01:33:18.193Z,72123.41
2023-03-08T01:33:50.615Z,72123.41
2023-03-08T01:34:22.901Z,72125.41
2023-03-08T01:35:02.190Z,72127.41
2023-03-08T01:35:34.415Z,72119.41
2023-03-08T01:36:09.053Z,72119.41
2023-03-08T01:36:43.922Z,72127.41
2023-03-08T01:37:16.304Z,72123.41
2023-03-08T01:37:53.477Z,72121.41
2023-03-08T01:38:29.077Z,72119.41
2023-03-08T01:39:01.553Z,72113.44
2023-03-08T01:39:34.038Z,72111.44
2023-03-08T01:40:08.769Z,72109.44
2023-03-08T01:40:43.599Z,72107.44
2023-03-08T01:41:17.475Z,72111.44
2023-03-08T01:41:49.820Z,72107.44
2023-03-08T01:42:24.676Z,72107.44
2023-03-08T01:42:57.021Z,72107.44
2023-03-08T01:43:34.315Z,72115.44
2023-03-08T01:44:12.513Z,72111.44
2023-03-08T01:44:52.585Z,72109.44
2023-03-08T01:45:55.424Z,72111.44
2023-03-08T01:46:31.903Z,72109.44
2023-03-08T01:47:13.624Z,72107.44
2023-03-08T01:47:54.413Z,72101.44
2023-03-08T01:48:36.888Z,72107.44
2023-03-08T01:49:14.250Z,72099.47
2023-03-08T01:49:49.231Z,72101.44
2023-03-08T01:50:21.680Z,72099.47
2023-03-08T01:50:53.976Z,72103.44
2023-03-08T01:51:35.178Z,72103.44
2023-03-08T01:52:09.789Z,72099.47
2023-03-08T01:52:48.710Z,72103.44
2023-03-08T01:53:21.274Z,72097.47
2023-03-08T01:53:53.672Z,72103.44
2023-03-08T01:54:32.389Z,72097.47
2023-03-08T01:55:08.332Z,72099.47
2023-03-08T01:55:40.609Z,72105.44
2023-03-08T01:56:14.285Z,72101.44
2023-03-08T01:56:50.934Z,72097.47
2023-03-08T01:57:25.992Z,72099.47
2023-03-08T01:57:58.548Z,72099.47
2023-03-08T01:58:34.249Z,72107.44
2023-03-08T01:59:09.926Z,72103.44
2023-03-08T01:59:43.251Z,72101.44
2023-03-08T02:00:17.767Z,72097.47
2023-03-08T02:00:54.725Z,72103.44
2023-03-08T02:01:27.154Z,72099.47
2023-03-08T02:02:03.023Z,72103.44
2023-03-08T02:02:43.612Z,72099.47
2023-03-08T02:03:16.733Z,72095.47
2023-03-08T02:03:49.380Z,72095.47
2023-03-08T02:04:26.528Z,72095.47
2023-03-08T02:04:58.958Z,72091.47
2023-03-08T02:05:33.029Z,72103.44
2023-03-08T02:06:17.346Z,72103.44
2023-03-08T02:06:49.606Z,72099.47
2023-03-08T02:07:26.494Z,72103.44
2023-03-08T02:08:01.581Z,72095.47
2023-03-08T02:08:38.030Z,72097.47
2023-03-08T02:09:10.344Z,72097.47
2023-03-08T02:09:45.356Z,72095.47
2023-03-08T02:10:18.199Z,72089.47
2023-03-08T02:10:50.916Z,72091.47
2023-03-08T02:11:26.871Z,72091.47
2023-03-08T02:12:04.991Z,72089.47
2023-03-08T02:12:38.148Z,72095.47
2023-03-08T02:13:11.446Z,72091.47
2023-03-08T02:13:53.024Z,72089.47
2023-03-08T02:14:25.660Z,72091.47
2023-03-08T02:14:59.020Z,72091.47
2023-03-08T02:15:32.259Z,72091.47
2023-03-08T02:16:08.457Z,72091.47
2023-03-08T02:16:40.769Z,72087.47
2023-03-08T02:17:15.857Z,72083.50
2023-03-08T02:17:48.448Z,72087.47
2023-03-08T02:18:20.728Z,72085.50
2023-03-08T02:19:00.481Z,72083.50
2023-03-08T02:19:39.471Z,72087.47
2023-03-08T02:20:14.560Z,72083.50
2023-03-08T02:20:49.426Z,72083.50
2023-03-08T02:21:22.368Z,72083.50
2023-03-08T02:21:54.599Z,72079.50
2023-03-08T02:22:29.612Z,72089.47
2023-03-08T02:23:11.844Z,72091.47
2023-03-08T02:23:46.512Z,72087.47
2023-03-08T02:24:22.929Z,72077.50
2023-03-08T02:24:55.167Z,72087.47
2023-03-08T02:25:27.951Z,72081.50
2023-03-08T02:26:06.057Z,72091.47
2023-03-08T02:26:38.343Z,72083.50
2023-03-08T02:27:14.158Z,72083.50
2023-03-08T02:27:49.264Z,72079.50
2023-03-08T02:28:22.468Z,72085.50
2023-03-08T02:28:54.695Z,72089.47
2023-03-08T02:29:29.557Z,72087.47
2023-03-08T02:30:03.780Z,72083.50
2023-03-08T02:30:37.773Z,72085.50
2023-03-08T02:31:12.707Z,72079.50
2023-03-08T02:31:45.021Z,72085.50
2023-03-08T02:32:17.281Z,72079.50
2023-03-08T02:32:52.114Z,72083.50
2023-03-08T02:33:24.782Z,72083.50
2023-03-08T02:33:57.020Z,72087.47
2023-03-08T02:34:35.178Z,72071.53
2023-03-08T02:35:08.153Z,72079.50
2023-03-08T02:35:42.852Z,72075.50
2023-03-08T02:36:19.189Z,72075.50
2023-03-08T02:36:51.475Z,72079.50
2023-03-08T02:37:23.793Z,72075.50
2023-03-08T02:37:56.216Z,72083.50
2023-03-08T02:38:34.848Z,72075.50
2023-03-08T02:39:07.104Z,72075.50
2023-03-08T02:39:39.340Z,72079.50
2023-03-08T02:40:15.708Z,72087.47
2023-03-08T02:40:51.522Z,72081.50
2023-03-08T02:41:23.874Z,72079.50
2023-03-08T02:41:58.728Z,72083.50
2023-03-08T02:42:30.964Z,72079.50
2023-03-08T02:43:03.232Z,72073.50
2023-03-08T02:43:38.712Z,72079.50
2023-03-08T02:44:11.778Z,72073.50
2023-03-08T02:44:44.134Z,72075.50
2023-03-08T02:45:19.070Z,72079.50
2023-03-08T02:45:51.520Z,72073.50
2023-03-08T02:46:23.795Z,72073.50
2023-03-08T02:46:58.928Z,72075.50
2023-03-08T02:47:31.272Z,72075.50
2023-03-08T02:48:05.134Z,72075.50
2023-03-08T02:48:39.976Z,72077.50
2023-03-08T02:49:12.226Z,72077.50
2023-03-08T02:49:44.488Z,72075.50
2023-03-08T02:50:17.290Z,72077.50
2023-03-08T02:50:52.940Z,72077.50
2023-03-08T02:51:25.307Z,72083.50
2023-03-08T02:52:00.274Z,72077.50
2023-03-08T02:52:32.597Z,72075.50
2023-03-08T02:53:04.900Z,72075.50
2023-03-08T02:53:43.455Z,72075.50
2023-03-08T02:54:16.994Z,72077.50
2023-03-08T02:54:49.956Z,72071.53
2023-03-08T02:55:22.372Z,72075.50
2023-03-08T02:55:57.488Z,72067.53
2023-03-08T02:56:29.741Z,72067.53
2023-03-08T02:57:01.982Z,72067.53
2023-03-08T02:57:37.494Z,72075.50
2023-03-08T02:58:11.204Z,72071.53
2023-03-08T02:58:46.051Z,72067.53
2023-03-08T02:59:18.320Z,72075.50
2023-03-08T02:59:50.925Z,72073.50
2023-03-08T03:00:25.900Z,72075.50
2023-03-08T03:00:58.233Z,72071.53
2023-03-08T03:01:30.507Z,72069.53
2023-03-08T03:02:04.607Z,72063.53
2023-03-08T03:02:39.541Z,72071.53
2023-03-08T03:03:11.788Z,72071.53
2023-03-08T03:03:44.069Z,72069.53
2023-03-08T03:04:20.249Z,72069.53
2023-03-08T03:04:53.082Z,72075.50
2023-03-08T03:05:25.608Z,72067.53
2023-03-08T03:06:00.513Z,72071.53
2023-03-08T03:06:37.355Z,72067.53
2023-03-08T03:07:09.903Z,72063.53
2023-03-08T03:07:46.171Z,72067.53
2023-03-08T03:08:22.725Z,72071.53
2023-03-08T03:08:57.585Z,72067.53
2023-03-08T03:09:30.945Z,72071.53
2023-03-08T03:10:06.253Z,72055.56
2023-03-08T03:10:42.008Z,72059.53
2023-03-08T03:11:14.416Z,72059.53
2023-03-08T03:11:49.287Z,72063.53
2023-03-08T03:12:21.660Z,72063.53
2023-03-08T03:12:54.223Z,72063.53
2023-03-08T03:13:33.105Z,72065.53
2023-03-08T03:14:05.515Z,72059.53
2023-03-08T03:14:43.486Z,72055.56
2023-03-08T03:15:18.415Z,72061.53
2023-03-08T03:15:54.089Z,72053.56
2023-03-08T03:16:30.201Z,72053.56
2023-03-08T03:17:02.455Z,72055.56
2023-03-08T03:17:36.835Z,72059.53
2023-03-08T03:18:11.689Z,72059.53
2023-03-08T03:18:43.962Z,72059.53
2023-03-08T03:19:16.221Z,72053.56
2023-03-08T03:19:51.085Z,72051.56
2023-03-08T03:20:23.323Z,72051.56
2023-03-08T03:20:55.641Z,72047.56
2023-03-08T03:21:30.531Z,72055.56
2023-03-08T03:22:02.814Z,72051.56
2023-03-08T03:22:36.290Z,72055.56
2023-03-08T03:23:12.614Z,72051.56
2023-03-08T03:23:59.723Z,72047.56
2023-03-08T03:24:46.035Z,72055.56
2023-03-08T03:25:21.070Z,72045.56
2023-03-08T03:25:54.403Z,72045.56
2023-03-08T03:26:27.200Z,72051.56
2023-03-08T03:27:04.373Z,72051.56
2023-03-08T03:27:39.908Z,72047.56
2023-03-08T03:28:12.644Z,72045.56
2023-03-08T03:28:48.326Z,72047.56
2023-03-08T03:29:20.973Z,72051.56
2023-03-08T03:29:57.477Z,72053.56
2023-03-08T03:30:32.440Z,72045.56
2023-03-08T03:31:08.105Z,72045.56
2023-03-08T03:31:40.492Z,72035.59
2023-03-08T03:32:15.740Z,72039.59
2023-03-08T03:32:48.220Z,72045.56
2023-03-08T03:33:25.337Z,72047.56
2023-03-08T03:34:00.644Z,72047.56
2023-03-08T03:34:34.117Z,72047.56
2023-03-08T03:35:07.460Z,72047.56
2023-03-08T03:35:42.975Z,72043.59
2023-03-08T03:36:17.573Z,72045.56
2023-03-08T03:36:50.223Z,72043.59
2023-03-08T03:37:25.220Z,72039.59
2023-03-08T03:37:57.470Z,72043.59
2023-03-08T03:38:30.065Z,72043.59
2023-03-08T03:39:07.601Z,72043.59
2023-03-08T03:39:42.925Z,72051.56
2023-03-08T03:40:18.724Z,72047.56
2023-03-08T03:41:03.835Z,72043.59
2023-03-08T03:41:36.780Z,72045.56
2023-03-08T03:42:18.009Z,72047.56
2023-03-08T03:42:59.846Z,72045.56
2023-03-08T03:43:32.274Z,72043.59
2023-03-08T03:44:05.764Z,72039.59
2023-03-08T03:44:42.090Z,72043.59
2023-03-08T03:45:18.821Z,72043.59
2023-03-08T03:45:56.055Z,72043.59
2023-03-08T03:46:31.676Z,72041.59
2023-03-08T03:47:05.215Z,72047.56
2023-03-08T03:47:40.430Z,72043.59
2023-03-08T03:48:17.308Z,72047.56
2023-03-08T03:48:49.550Z,72043.59
2023-03-08T03:49:28.349Z,72047.56
2023-03-08T03:50:00.655Z,72047.56
2023-03-08T03:50:37.366Z,72043.59
2023-03-08T03:51:18.981Z,72043.59
2023-03-08T03:51:55.219Z,72043.59
2023-03-08T03:52:35.936Z,72043.59
2023-03-08T03:53:13.223Z,72041.59
2023-03-08T03:53:46.514Z,72047.56
2023-03-08T03:54:22.481Z,72041.59
2023-03-08T03:54:57.498Z,72031.59
2023-03-08T03:55:30.439Z,72047.56
2023-03-08T03:56:05.112Z,72035.59
2023-03-08T03:56:40.710Z,72035.59
2023-03-08T03:57:13.192Z,72047.56
2023-03-08T03:57:47.672Z,72039.59
2023-03-08T03:58:25.401Z,72037.59
2023-03-08T03:58:57.717Z,72043.59
2023-03-08T03:59:33.352Z,72035.59
2023-03-08T04:00:10.389Z,72043.59
2023-03-08T04:00:56.341Z,72043.59
2023-03-08T04:01:37.961Z,72041.59
2023-03-08T04:02:23.573Z,72041.59
2023-03-08T04:03:04.665Z,72033.59
2023-03-08T04:03:38.729Z,72035.59
2023-03-08T04:04:11.511Z,72037.59
2023-03-08T04:04:52.233Z,72037.59
2023-03-08T04:05:28.580Z,72031.59
2023-03-08T04:06:07.067Z,72035.59
2023-03-08T04:06:42.925Z,72029.63
2023-03-08T04:07:19.028Z,72031.59
2023-03-08T04:08:00.016Z,72027.63
2023-03-08T04:08:42.123Z,72031.59
2023-03-08T04:09:18.365Z,72027.63
2023-03-08T04:10:03.431Z,72031.59
2023-03-08T04:10:37.117Z,72027.63
2023-03-08T04:11:10.929Z,72027.63
2023-03-08T04:11:45.879Z,72023.63
2023-03-08T04:12:22.487Z,72023.63
2023-03-08T04:12:55.455Z,72025.63
2023-03-08T04:13:30.804Z,72023.63
2023-03-08T04:14:03.526Z,72023.63
2023-03-08T04:14:36.170Z,72029.63
2023-03-08T04:15:12.615Z,72027.63
2023-03-08T04:15:44.864Z,72029.63
2023-03-08T04:16:20.537Z,72029.63
2023-03-08T04:16:55.785Z,72027.63
2023-03-08T04:17:34.466Z,72031.59
2023-03-08T04:18:06.998Z,72023.63
2023-03-08T04:18:43.502Z,72027.63
2023-03-08T04:19:15.901Z,72023.63
2023-03-08T04:19:57.231Z,72027.63
2023-03-08T04:20:29.540Z,72023.63
2023-03-08T04:21:04.729Z,72019.63
2023-03-08T04:21:39.812Z,72021.63
2023-03-08T04:22:12.303Z,72023.63
2023-03-08T04:22:50.751Z,72019.63
2023-03-08T04:23:32.109Z,72021.63
2023-03-08T04:24:05.334Z,72023.63
2023-03-08T04:24:40.386Z,72021.63
2023-03-08T04:25:20.464Z,72015.66
2023-03-08T04:26:02.205Z,72013.66
2023-03-08T04:26:34.897Z,72015.66
2023-03-08T04:27:07.133Z,72011.66
2023-03-08T04:27:41.959Z,72007.66
2023-03-08T04:28:14.383Z,72013.66
2023-03-08T04:28:46.790Z,72007.66
2023-03-08T04:29:21.740Z,72009.66
2023-03-08T04:29:54.695Z,71999.69
2023-03-08T04:30:30.079Z,71999.69
2023-03-08T04:31:15.278Z,71999.69
2023-03-08T04:31:47.981Z,72003.66
2023-03-08T04:32:23.475Z,72007.66
2023-03-08T04:33:03.619Z,71995.69
2023-03-08T04:33:44.345Z,71999.69
2023-03-08T04:34:19.304Z,71987.72
2023-03-08T04:34:54.489Z,71983.72
2023-03-08T04:35:29.808Z,71987.72
2023-03-08T04:36:05.670Z,71991.69
2023-03-08T04:36:40.680Z,71987.72
2023-03-08T04:37:14.309Z,71991.69
2023-03-08T04:37:49.855Z,71987.72
2023-03-08T04:38:26.496Z,71991.69
2023-03-08T04:39:01.522Z,71987.72
2023-03-08T04:39:34.939Z,71983.72
2023-03-08T04:40:13.124Z,71979.72
2023-03-08T04:41:06.352Z,71975.72
2023-03-08T04:41:52.319Z,71983.72
2023-03-08T04:42:31.843Z,71983.72
2023-03-08T04:43:04.399Z,71983.72
2023-03-08T04:43:48.822Z,71983.72
2023-03-08T04:44:23.553Z,71987.72
2023-03-08T04:45:00.468Z,71987.72
2023-03-08T04:45:33.071Z,71991.69
2023-03-08T04:46:09.167Z,71989.69
2023-03-08T04:46:46.377Z,71987.72
2023-03-08T04:47:25.292Z,71991.69
2023-03-08T04:47:57.547Z,71979.72
2023-03-08T04:48:33.576Z,71985.72
2023-03-08T04:49:06.116Z,71979.72
2023-03-08T04:49:44.708Z,71983.72
2023-03-08T04:50:20.853Z,71979.72
2023-03-08T04:50:54.574Z,71987.72
2023-03-08T04:51:27.435Z,71983.72
2023-03-08T04:52:05.225Z,71977.72
2023-03-08T04:52:39.939Z,71977.72
2023-03-08T04:53:12.188Z,71975.72
2023-03-08T04:53:47.533Z,71975.72
2023-03-08T04:54:20.529Z,71975.72
2023-03-08T04:54:59.143Z,71975.72
2023-03-08T04:55:35.551Z,71969.75
2023-03-08T04:56:10.578Z,71971.75
2023-03-08T04:56:45.616Z,71973.72
2023-03-08T04:57:20.931Z,71975.72
2023-03-08T04:57:54.493Z,71979.72
2023-03-08T04:58:29.912Z,71971.75
2023-03-08T04:59:02.413Z,71977.72
2023-03-08T04:59:34.791Z,71973.72
2023-03-08T05:00:13.371Z,71975.72
2023-03-08T05:00:48.161Z,71979.72
2023-03-08T05:01:23.155Z,71973.72
2023-03-08T05:01:59.090Z,71973.72
2023-03-08T05:02:33.557Z,71971.75
2023-03-08T05:03:06.380Z,71979.72
2023-03-08T05:03:41.335Z,71979.72
2023-03-08T05:04:13.687Z,71983.72
2023-03-08T05:04:47.684Z,71977.72
2023-03-08T05:05:22.683Z,71979.72
2023-03-08T05:05:56.304Z,71975.72
2023-03-08T05:06:29.329Z,71975.72
2023-03-08T05:07:05.567Z,71973.72
2023-03-08T05:07:40.468Z,71971.75
2023-03-08T05:08:12.905Z,71967.75
2023-03-08T05:08:47.914Z,71967.75
2023-03-08T05:09:20.174Z,71963.75
2023-03-08T05:09:55.634Z,71967.75
2023-03-08T05:10:32.052Z,71963.75
2023-03-08T05:11:04.973Z,71971.75
2023-03-08T05:11:45.164Z,71967.75
2023-03-08T05:12:17.591Z,71963.75
2023-03-08T05:12:54.965Z,71959.75
2023-03-08T05:13:30.668Z,71963.75
2023-03-08T05:14:03.002Z,71965.75
2023-03-08T05:14:35.345Z,71963.75
2023-03-08T05:15:11.310Z,71955.78
2023-03-08T05:15:43.823Z,71971.75
2023-03-08T05:16:16.082Z,71963.75
2023-03-08T05:16:50.992Z,71967.75
2023-03-08T05:17:23.357Z,71967.75
2023-03-08T05:17:55.913Z,71967.75
2023-03-08T05:18:31.080Z,71967.75
2023-03-08T05:19:03.384Z,71965.75
2023-03-08T05:19:41.269Z,71965.75
2023-03-08T05:20:16.889Z,71967.75
2023-03-08T05:20:54.933Z,71967.75
2023-03-08T05:21:27.783Z,71963.75
2023-03-08T05:22:06.944Z,71967.75
2023-03-08T05:22:57.236Z,71967.75
2023-03-08T05:23:37.492Z,71965.75
2023-03-08T05:24:09.837Z,71961.75
2023-03-08T05:24:43.642Z,71959.75
2023-03-08T05:25:21.037Z,71961.75
2023-03-08T05:25:53.926Z,71963.75
2023-03-08T05:26:26.216Z,71961.75
2023-03-08T05:27:03.819Z,71963.75
2023-03-08T05:27:36.085Z,71955.78
2023-03-08T05:28:15.846Z,71963.75
2023-03-08T05:28:52.128Z,71955.78
2023-03-08T05:29:27.466Z,71955.78
2023-03-08T05:29:59.745Z,71951.78
2023-03-08T05:30:37.537Z,71951.78
2023-03-08T05:31:12.780Z,71951.78
2023-03-08T05:31:45.657Z,71955.78
2023-03-08T05:32:22.450Z,71959.75
2023-03-08T05:32:56.089Z,71945.78
2023-03-08T05:33:28.423Z,71951.78
2023-03-08T05:34:03.381Z,71951.78
2023-03-08T05:34:41.061Z,71955.78
2023-03-08T05:35:17.054Z,71951.78
2023-03-08T05:35:56.546Z,71945.78
2023-03-08T05:36:30.042Z,71951.78
2023-03-08T05:37:06.344Z,71939.81
2023-03-08T05:37:41.060Z,71947.78
2023-03-08T05:38:13.361Z,71947.78
2023-03-08T05:38:48.967Z,71939.81
2023-03-08T05:39:21.329Z,71941.81
2023-03-08T05:40:00.907Z,71937.81
2023-03-08T05:40:35.794Z,71941.81
2023-03-08T05:41:10.955Z,71941.81
2023-03-08T05:41:46.061Z,71947.78
2023-03-08T05:42:27.579Z,71945.78
2023-03-08T05:43:01.005Z,71931.81
2023-03-08T05:43:36.255Z,71933.81
2023-03-08T05:44:11.172Z,71935.81
2023-03-08T05:44:44.988Z,71931.81
2023-03-08T05:45:19.291Z,71931.81
2023-03-08T05:46:01.073Z,71933.81
2023-03-08T05:46:34.559Z,71931.81
2023-03-08T05:47:08.296Z,71927.84
2023-03-08T05:47:45.226Z,71929.84
2023-03-08T05:48:17.455Z,71935.81
2023-03-08T05:48:49.730Z,71933.81
2023-03-08T05:49:26.245Z,71933.81
2023-03-08T05:49:58.817Z,71927.84
2023-03-08T05:50:33.072Z,71927.84
2023-03-08T05:51:08.720Z,71931.81
2023-03-08T05:51:41.027Z,71923.84
2023-03-08T05:52:13.307Z,71923.84
2023-03-08T05:52:48.483Z,71915.88
2023-03-08T05:53:25.682Z,71919.84
2023-03-08T05:54:00.596Z,71919.84
2023-03-08T05:54:33.323Z,71911.88
2023-03-08T05:55:09.947Z,71919.84
2023-03-08T05:55:45.533Z,71915.88
2023-03-08T05:56:19.979Z,71915.88
2023-03-08T05:56:59.461Z,71907.88
2023-03-08T05:57:36.922Z,71915.88
2023-03-08T05:58:09.156Z,71911.88
2023-03-08T05:58:43.678Z,71911.88
2023-03-08T05:59:19.838Z,71907.88
2023-03-08T05:59:52.330Z,71907.88
2023-03-08T06:00:27.730Z,71907.88
2023-03-08T06:01:12.068Z,71907.88
2023-03-08T06:01:44.391Z,71899.91
2023-03-08T06:02:32.009Z,71899.91
2023-03-08T06:03:04.399Z,71903.88
2023-03-08T06:03:42.443Z,71895.91
2023-03-08T06:04:14.922Z,71899.91
2023-03-08T06:04:49.011Z,71899.91
2023-03-08T06:05:27.406Z,71895.91
2023-03-08T06:06:01.942Z,71899.91
2023-03-08T06:06:36.823Z,71893.91
2023-03-08T06:07:10.629Z,71903.88
2023-03-08T06:07:47.552Z,71899.91
2023-03-08T06:08:22.834Z,71893.91
2023-03-08T06:08:56.444Z,71891.91
2023-03-08T06:09:28.859Z,71895.91
2023-03-08T06:10:03.849Z,71891.91
2023-03-08T06:10:36.152Z,71891.91
2023-03-08T06:11:08.988Z,71887.94
2023-03-08T06:11:44.605Z,71887.94
2023-03-08T06:12:16.920Z,71883.94
2023-03-08T06:12:53.790Z,71887.94
2023-03-08T06:13:31.970Z,71887.94
2023-03-08T06:14:04.300Z,71881.94
2023-03-08T06:14:38.572Z,71883.94
2023-03-08T06:15:15.366Z,71879.94
2023-03-08T06:15:47.610Z,71883.94
2023-03-08T06:16:19.890Z,71881.94
2023-03-08T06:16:56.076Z,71885.94
2023-03-08T06:17:31.126Z,71879.94
2023-03-08T06:18:08.151Z,71883.94
2023-03-08T06:18:41.662Z,71877.94
2023-03-08T06:19:14.986Z,71871.97
2023-03-08T06:19:51.100Z,71871.97
2023-03-08T06:20:24.694Z,71873.97
2023-03-08T06:21:04.616Z,71879.94
2023-03-08T06:21:38.869Z,71879.94
2023-03-08T06:22:16.019Z,71867.97
2023-03-08T06:22:51.627Z,71869.97
2023-03-08T06:23:24.532Z,71867.97
2023-03-08T06:23:56.816Z,71871.97
2023-03-08T06:24:32.423Z,71871.97
2023-03-08T06:25:08.773Z,71867.97
2023-03-08T06:25:43.990Z,71871.97
2023-03-08T06:26:19.911Z,71863.97
2023-03-08T06:26:53.114Z,71875.94
2023-03-08T06:27:29.095Z,71871.97
2023-03-08T06:28:07.148Z,71867.97
2023-03-08T06:28:46.251Z,71871.97
2023-03-08T06:29:18.930Z,71863.97
2023-03-08T06:29:53.765Z,71867.97
2023-03-08T06:30:27.386Z,71867.97
2023-03-08T06:31:00.233Z,71860.00
2023-03-08T06:31:35.197Z,71858.00
2023-03-08T06:32:09.663Z,71856.00
2023-03-08T06:32:47.106Z,71860.00
2023-03-08T06:33:21.077Z,71856.00
2023-03-08T06:33:53.330Z,71856.00
2023-03-08T06:34:32.001Z,71856.00
2023-03-08T06:35:04.776Z,71858.00
2023-03-08T06:35:41.642Z,71860.00
2023-03-08T06:36:16.066Z,71856.00
2023-03-08T06:36:52.096Z,71860.00
2023-03-08T06:37:27.709Z,71854.00
2023-03-08T06:38:01.158Z,71856.00
2023-03-08T06:38:37.674Z,71852.00
2023-03-08T06:39:10.409Z,71852.00
2023-03-08T06:39:42.902Z,71856.00
2023-03-08T06:40:20.921Z,71856.00
2023-03-08T06:40:53.199Z,71860.00
2023-03-08T06:41:25.717Z,71856.00
2023-03-08T06:42:04.213Z,71854.00
2023-03-08T06:42:41.474Z,71852.00
2023-03-08T06:43:20.873Z,71852.00
2023-03-08T06:43:55.871Z,71850.00
2023-03-08T06:44:28.421Z,71852.00
2023-03-08T06:45:00.669Z,71852.00
2023-03-08T06:45:36.631Z,71844.03
2023-03-08T06:46:11.138Z,71844.03
2023-03-08T06:46:46.063Z,71844.03
2023-03-08T06:47:18.316Z,71852.00
2023-03-08T06:47:50.782Z,71840.03
2023-03-08T06:48:26.056Z,71840.03
2023-03-08T06:49:00.123Z,71844.03
2023-03-08T06:49:32.414Z,71844.03
2023-03-08T06:50:07.911Z,71846.03